Time;durP1;ratioP1;P1;durP2;ratioP2;P2;SDS_P1;SDS_P2;PMS_P1;PMS_P2;Temp;Humidity;BMP_temperature;BMP_pressure;BME280_temperature;BME280_humidity;BME280_pressure;Samples;Min_cycle;Max_cycle;Signal;HPM_P1;HPM_P2
2022/10/13 00:00:48;;;;;;;15.55;5.30;;;;;;;7.13;100.00;101364.19;5025935;28;20053;-76
2022/10/13 00:03:16;;;;;;;8.77;5.78;;;;;;;7.15;100.00;101365.09;5003660;28;20158;-79
2022/10/13 00:05:49;;;;;;;8.02;5.60;;;;;;;7.17;100.00;101366.00;5006106;28;20116;-76
2022/10/13 00:08:20;;;;;;;12.03;6.03;;;;;;;7.17;100.00;101355.59;5004526;28;20045;-77
2022/10/13 00:10:50;;;;;;;8.73;5.78;;;;;;;7.23;100.00;101350.47;5007165;28;20128;-80
2022/10/13 00:13:18;;;;;;;14.10;5.25;;;;;;;7.31;100.00;101354.94;5005857;28;20896;-78
2022/10/13 00:15:46;;;;;;;12.05;5.82;;;;;;;7.38;100.00;101347.25;5007235;28;20077;-78
2022/10/13 00:18:14;;;;;;;7.85;5.65;;;;;;;7.45;100.00;101345.59;4990636;28;20076;-78
2022/10/13 00:20:49;;;;;;;7.55;5.38;;;;;;;7.53;100.00;101343.97;4990243;28;20056;-76
2022/10/13 00:23:17;;;;;;;12.77;5.90;;;;;;;7.58;100.00;101344.06;5007644;28;20141;-76
2022/10/13 00:25:48;;;;;;;10.85;6.45;;;;;;;7.64;100.00;101338.94;5003173;28;20064;-76
2022/10/13 00:28:17;;;;;;;8.95;5.20;;;;;;;7.72;100.00;101349.47;5004656;28;20068;-77
2022/10/13 00:30:43;;;;;;;10.05;5.35;;;;;;;7.76;100.00;101348.66;5020252;28;20041;-79
2022/10/13 00:33:13;;;;;;;12.27;4.85;;;;;;;7.84;100.00;101343.56;5023467;28;20059;-76
2022/10/13 00:35:48;;;;;;;9.32;5.15;;;;;;;7.88;100.00;101353.16;5009419;28;20046;-76
2022/10/13 00:38:17;;;;;;;8.15;4.50;;;;;;;7.90;100.00;101341.91;5012184;28;20048;-76
2022/10/13 00:40:54;;;;;;;4.97;4.45;;;;;;;7.94;100.00;101346.28;5013266;28;20759;-78
2022/10/13 00:43:25;;;;;;;8.00;5.30;;;;;;;7.99;100.00;101335.94;5005780;28;20806;-76
2022/10/13 00:45:53;;;;;;;7.88;5.85;;;;;;;8.06;100.00;101342.97;5008999;28;20048;-78
2022/10/13 00:48:25;;;;;;;10.23;4.47;;;;;;;8.10;100.00;101341.28;4988605;28;20045;-82
2022/10/13 00:50:52;;;;;;;4.63;4.20;;;;;;;8.12;100.00;101336.94;5009044;28;20041;-77
2022/10/13 00:53:23;;;;;;;8.32;5.75;;;;;;;8.15;100.00;101337.00;5007382;28;20041;-79
2022/10/13 00:55:52;;;;;;;8.23;5.15;;;;;;;8.16;100.00;101343.97;5006494;28;20045;-78
2022/10/13 00:58:23;;;;;;;9.13;4.88;;;;;;;8.18;100.00;101334.41;5009722;28;20049;-77
2022/10/13 01:00:52;;;;;;;8.70;4.70;;;;;;;8.20;100.00;101337.94;5008528;28;20488;-77
2022/10/13 01:03:20;;;;;;;9.15;5.22;;;;;;;8.20;100.00;101335.31;4993605;28;20050;-77
2022/10/13 01:05:48;;;;;;;9.95;6.22;;;;;;;8.21;100.00;101338.78;5001838;28;20038;-77
2022/10/13 01:08:15;;;;;;;9.75;5.60;;;;;;;8.21;100.00;101339.69;5020504;28;20055;-77
2022/10/13 01:11:26;;;;;;;6.97;5.07;;;;;;;8.22;100.00;101340.53;4985021;28;20057;-82
2022/10/13 01:14:14;;;;;;;6.50;4.47;;;;;;;8.21;100.00;101339.69;5024830;28;20049;-78
2022/10/13 01:17:07;;;;;;;7.28;5.50;;;;;;;8.18;100.00;101331.81;5010097;28;20053;-79
2022/10/13 01:20:12;;;;;;;9.45;5.53;;;;;;;8.16;100.00;101332.63;5023108;28;20844;-76
2022/10/13 01:23:05;;;;;;;11.05;5.72;;;;;;;8.10;100.00;101343.88;5016968;28;20037;-79
2022/10/13 01:26:10;;;;;;;7.82;4.85;;;;;;;8.01;100.00;101335.94;5016952;28;20485;-76
2022/10/13 01:29:11;;;;;;;7.35;4.95;;;;;;;7.93;100.00;101328.03;5028521;28;20120;-76
2022/10/13 01:31:52;;;;;;;11.55;5.35;;;;;;;7.87;100.00;101325.34;5017301;28;20049;-78
2022/10/13 01:34:28;;;;;;;11.50;6.45;;;;;;;7.86;100.00;101324.47;5025688;28;20132;-76
2022/10/13 01:37:23;;;;;;;15.75;5.88;;;;;;;7.87;100.00;101320.13;5008694;28;20060;-81
2022/10/13 01:40:25;;;;;;;12.70;5.88;;;;;;;7.86;100.00;101321.88;5005441;28;20049;-79
2022/10/13 01:42:58;;;;;;;10.13;6.35;;;;;;;7.86;100.00;101321.88;5014523;28;20680;-80
2022/10/13 01:45:46;;;;;;;9.60;5.15;;;;;;;7.90;100.00;101321.03;5005714;28;20156;-77
2022/10/13 01:48:15;;;;;;;11.85;5.63;;;;;;;7.87;100.00;101310.56;5006177;28;20041;-79
2022/10/13 01:50:42;;;;;;;11.05;5.47;;;;;;;7.87;100.00;101315.78;5009429;28;20052;-78
2022/10/13 01:53:11;;;;;;;9.35;5.50;;;;;;;7.82;100.00;101304.41;5008661;28;20047;-78
2022/10/13 01:55:55;;;;;;;6.50;5.43;;;;;;;7.76;100.00;101310.44;5008622;28;20049;-76
2022/10/13 01:58:24;;;;;;;;;;;;;;;7.70;100.00;101302.53;5005525;28;20044;-82
2022/10/13 02:01:08;;;;;;;6.22;4.70;;;;;;;7.65;100.00;101298.97;5004863;28;20386;-78
2022/10/13 02:04:06;;;;;;;8.07;5.13;;;;;;;7.65;100.00;101298.97;5004614;28;20045;-78
2022/10/13 02:06:56;;;;;;;12.75;5.53;;;;;;;7.69;100.00;101300.78;5022139;28;20475;-83
2022/10/13 02:09:34;;;;;;;11.45;5.95;;;;;;;7.74;100.00;101295.63;5016854;28;20037;-80
2022/10/13 02:12:20;;;;;;;11.10;5.68;;;;;;;7.78;100.00;101294.81;5006146;28;20053;-77
2022/10/13 02:14:49;;;;;;;8.23;5.75;;;;;;;7.78;100.00;101295.69;5010375;28;20489;-79
2022/10/13 02:17:16;;;;;;;9.10;4.97;;;;;;;7.79;100.00;101293.97;4988516;28;20136;-81
2022/10/13 02:19:43;;;;;;;21.08;7.22;;;;;;;7.76;100.00;101284.38;5007329;28;20531;-79
2022/10/13 02:22:13;;;;;;;11.45;6.50;;;;;;;7.72;100.00;101284.31;4989739;28;20052;-76
2022/10/13 02:24:40;;;;;;;14.95;5.70;;;;;;;7.66;100.00;101276.41;5003309;28;20463;-80
2022/10/13 02:27:08;;;;;;;11.82;6.65;;;;;;;7.62;100.00;101272.88;5005193;28;20041;-81
2022/10/13 02:29:35;;;;;;;9.52;5.38;;;;;;;7.60;100.00;101285.91;5002299;28;20384;-78
2022/10/13 02:32:01;;;;;;;8.15;5.68;;;;;;;7.54;100.00;101278.00;5004964;28;20037;-77
2022/10/13 02:34:28;;;;;;;12.75;6.47;;;;;;;7.50;100.00;101284.03;5003500;28;20042;-78
2022/10/13 02:36:54;;;;;;;8.52;5.50;;;;;;;7.45;100.00;101283.09;5003138;28;20054;-77
2022/10/13 02:39:21;;;;;;;8.85;5.60;;;;;;;7.42;100.00;101278.69;5004773;28;20842;-78
2022/10/13 02:41:47;;;;;;;10.80;6.45;;;;;;;7.36;100.00;101277.75;5004131;28;20045;-80
2022/10/13 02:44:14;;;;;;;10.00;6.25;;;;;;;7.30;100.00;101278.53;4992136;28;20041;-75
2022/10/13 02:46:41;;;;;;;10.50;5.45;;;;;;;7.23;100.00;101282.75;4992458;28;20049;-80
2022/10/13 02:49:10;;;;;;;9.77;6.00;;;;;;;7.16;100.00;101282.66;5004063;28;20101;-78
2022/10/13 02:51:36;;;;;;;11.13;6.20;;;;;;;7.10;100.00;101278.22;5003545;28;20411;-79
2022/10/13 02:54:03;;;;;;;9.43;6.75;;;;;;;7.07;100.00;101273.00;5003179;28;20041;-78
2022/10/13 02:56:29;;;;;;;13.50;5.90;;;;;;;7.03;100.00;101271.19;5022597;28;20077;-77
2022/10/13 02:58:58;;;;;;;9.00;6.93;;;;;;;7.02;100.00;101278.09;5017688;28;20042;-76
2022/10/13 03:01:25;;;;;;;15.60;8.30;;;;;;;7.04;100.00;101270.31;5029608;28;20041;-75
2022/10/13 03:03:51;;;;;;;11.80;6.35;;;;;;;7.09;100.00;101273.88;4993750;28;20038;-75
2022/10/13 03:06:17;;;;;;;10.77;7.10;;;;;;;7.14;100.00;101267.00;5026930;28;20046;-80
2022/10/13 03:08:44;;;;;;;10.27;6.57;;;;;;;7.21;100.00;101270.56;5021501;28;20915;-75
2022/10/13 03:11:10;;;;;;;12.85;7.50;;;;;;;7.27;100.00;101266.34;5006852;28;20594;-76
2022/10/13 03:13:37;;;;;;;12.35;7.07;;;;;;;7.33;100.00;101257.75;5026087;28;20037;-78
2022/10/13 03:16:04;;;;;;;11.70;7.20;;;;;;;7.38;100.00;101253.47;5006560;28;20072;-82
2022/10/13 03:18:31;;;;;;;12.55;6.93;;;;;;;7.45;100.00;101254.44;5009157;28;20116;-80
2022/10/13 03:21:06;;;;;;;8.75;6.25;;;;;;;7.49;100.00;101253.59;5010602;28;20056;-80
2022/10/13 03:23:32;;;;;;;12.05;8.13;;;;;;;7.54;100.00;101256.28;5026715;28;20107;-78
2022/10/13 03:26:00;;;;;;;9.60;7.15;;;;;;;7.57;100.00;101254.59;5005107;28;20064;-76
2022/10/13 03:28:27;;;;;;;10.57;6.22;;;;;;;7.58;100.00;101252.88;5001409;28;20049;-79
2022/10/13 03:31:06;;;;;;;12.00;7.20;;;;;;;7.59;100.00;101255.47;4989434;28;20041;-77
2022/10/13 03:33:33;;;;;;;17.85;6.97;;;;;;;7.61;100.00;101253.78;5004009;28;20045;-77
2022/10/13 03:36:02;;;;;;;12.75;6.82;;;;;;;7.65;100.00;101269.44;5007441;28;20080;-79
2022/10/13 03:38:30;;;;;;;13.77;6.93;;;;;;;7.68;100.00;101256.44;5012957;28;20047;-83
2022/10/13 03:40:57;;;;;;;10.30;7.15;;;;;;;7.68;100.00;101257.34;5011875;28;20080;-80
2022/10/13 03:43:24;;;;;;;12.60;7.07;;;;;;;7.69;100.00;101256.50;5025105;28;20767;-79
2022/10/13 03:46:00;;;;;;;12.05;6.78;;;;;;;7.70;100.00;101263.44;5008486;28;20132;-76
2022/10/13 03:48:27;;;;;;;14.25;6.60;;;;;;;7.70;100.00;101265.19;5002443;28;20040;-81
2022/10/13 03:50:54;;;;;;;9.55;6.40;;;;;;;7.67;100.00;101252.97;5003168;28;20115;-77
2022/10/13 03:53:21;;;;;;;11.05;6.80;;;;;;;7.65;100.00;101257.28;5007373;28;20038;-75
2022/10/13 03:55:54;;;;;;;11.93;7.70;;;;;;;7.64;100.00;101257.28;5024371;28;20050;-81
2022/10/13 03:58:22;;;;;;;11.40;7.10;;;;;;;7.61;100.00;101266.81;5000781;28;20056;-77
2022/10/13 04:00:49;;;;;;;13.05;7.78;;;;;;;7.60;100.00;101254.63;5004402;28;20499;-79
2022/10/13 04:03:16;;;;;;;18.20;8.70;;;;;;;7.62;100.00;101257.25;5004934;28;20405;-78
2022/10/13 04:05:43;;;;;;;10.60;7.22;;;;;;;7.67;100.00;101259.94;5008194;28;20050;-76
2022/10/13 04:08:10;;;;;;;11.55;8.05;;;;;;;7.69;100.00;101259.09;5006350;28;20050;-75
2022/10/13 04:10:37;;;;;;;12.30;7.03;;;;;;;7.75;100.00;101268.72;5015193;28;20500;-76
2022/10/13 04:13:04;;;;;;;15.93;8.23;;;;;;;7.78;100.00;101261.81;5034045;28;20045;-76
2022/10/13 04:15:31;;;;;;;15.80;7.05;;;;;;;7.83;100.00;101256.63;5030921;28;20048;-77
2022/10/13 04:17:57;;;;;;;23.92;9.40;;;;;;;7.89;100.00;101258.47;5014019;28;20056;-77
2022/10/13 04:20:24;;;;;;;12.63;7.57;;;;;;;7.90;100.00;101257.59;5015376;28;20071;-78
2022/10/13 04:22:50;;;;;;;14.48;7.65;;;;;;;7.92;100.00;101264.56;5032542;28;20089;-79
2022/10/13 04:25:17;;;;;;;11.20;7.40;;;;;;;7.90;100.00;101255.88;5036371;28;20030;-75
2022/10/13 04:27:43;;;;;;;10.25;7.65;;;;;;;7.92;100.00;101253.28;5014950;28;20054;-74
2022/10/13 04:30:11;;;;;;;10.23;7.75;;;;;;;7.91;100.00;101252.41;5031782;28;20043;-77
2022/10/13 04:32:38;;;;;;;12.50;8.18;;;;;;;7.91;100.00;101244.59;4995223;28;20045;-78
2022/10/13 04:35:05;;;;;;;9.43;7.35;;;;;;;7.92;100.00;101246.31;5013086;28;20505;-82
2022/10/13 04:37:31;;;;;;;9.95;7.40;;;;;;;7.93;100.00;101242.00;5013854;28;20050;-80
2022/10/13 04:39:58;;;;;;;13.65;8.25;;;;;;;7.94;100.00;101235.94;5027232;28;20119;-77
2022/10/13 04:42:24;;;;;;;13.48;9.32;;;;;;;7.95;100.00;101232.44;5012392;28;20047;-80
2022/10/13 04:44:54;;;;;;;13.30;8.35;;;;;;;7.93;100.00;101237.66;5009970;28;20055;-76
2022/10/13 04:47:20;;;;;;;22.35;9.48;;;;;;;7.92;100.00;101233.28;5027800;28;20125;-76
2022/10/13 04:49:48;;;;;;;17.42;8.50;;;;;;;7.91;100.00;101241.09;4997725;28;20048;-77
2022/10/13 04:52:14;;;;;;;12.32;8.15;;;;;;;7.90;100.00;101235.03;5012553;28;20087;-79
2022/10/13 04:54:41;;;;;;;15.27;8.68;;;;;;;7.89;100.00;101228.06;5014612;28;20148;-78
2022/10/13 04:57:08;;;;;;;19.38;9.20;;;;;;;7.90;100.00;101231.50;5014460;28;20045;-80
2022/10/13 04:59:34;;;;;;;14.88;8.52;;;;;;;7.90;100.00;101224.59;5010148;28;20045;-77
2022/10/13 05:02:02;;;;;;;20.90;8.50;;;;;;;7.91;100.00;101221.13;5011662;28;20050;-80
2022/10/13 05:04:28;;;;;;;15.05;10.98;;;;;;;7.95;100.00;101216.81;5013466;28;20077;-80
2022/10/13 05:06:55;;;;;;;11.13;9.13;;;;;;;7.95;100.00;101219.41;5011431;28;20044;-78
2022/10/13 05:09:22;;;;;;;16.25;8.65;;;;;;;7.99;100.00;101221.22;5027527;28;20049;-78
2022/10/13 05:11:48;;;;;;;16.48;9.82;;;;;;;7.99;100.00;101226.44;4991945;28;20050;-83
2022/10/13 05:14:15;;;;;;;13.43;8.55;;;;;;;7.99;100.00;101216.00;5013661;28;20034;-78
2022/10/13 05:16:41;;;;;;;11.75;8.70;;;;;;;7.99;100.00;101216.00;5015128;28;20049;-80
2022/10/13 05:19:08;;;;;;;16.52;8.38;;;;;;;7.99;100.00;101216.00;5007703;28;20149;-79
2022/10/13 05:21:35;;;;;;;17.05;8.85;;;;;;;7.98;100.00;101214.25;5016976;28;20356;-76
2022/10/13 05:24:01;;;;;;;10.43;8.07;;;;;;;7.98;100.00;101206.44;4997617;28;20422;-76
2022/10/13 05:26:30;;;;;;;18.70;8.63;;;;;;;8.03;100.00;101212.56;5010388;28;20052;-76
2022/10/13 05:29:01;;;;;;;17.90;9.93;;;;;;;8.07;100.00;101208.22;4994996;28;21360;-76
2022/10/13 05:31:31;;;;;;;16.33;8.80;;;;;;;8.09;100.00;101212.59;5017506;28;20102;-79
2022/10/13 05:33:58;;;;;;;18.55;11.35;;;;;;;8.11;100.00;101210.03;5009230;28;20037;-77
2022/10/13 05:36:34;;;;;;;23.23;11.30;;;;;;;8.13;100.00;101223.09;4990621;28;20157;-79
2022/10/13 05:39:07;;;;;;;19.00;8.88;;;;;;;8.15;100.00;101209.22;5007413;28;20038;-75
2022/10/13 05:41:34;;;;;;;15.38;9.02;;;;;;;8.17;100.00;101214.44;5003106;28;20110;-76
2022/10/13 05:44:04;;;;;;;15.45;9.40;;;;;;;8.20;100.00;101214.44;4993051;28;20564;-78
2022/10/13 05:46:31;;;;;;;18.42;10.93;;;;;;;8.24;100.00;101216.25;5005048;28;20044;-76
2022/10/13 05:48:58;;;;;;;16.67;10.15;;;;;;;8.26;100.00;101210.16;5003675;28;20125;-77
2022/10/13 05:51:28;;;;;;;15.00;9.40;;;;;;;8.27;100.00;101206.69;5007221;28;20045;-78
2022/10/13 05:54:04;;;;;;;10.40;8.38;;;;;;;8.30;100.00;101203.25;5007774;28;20806;-77
2022/10/13 05:56:40;;;;;;;14.15;9.20;;;;;;;8.33;100.00;101199.78;5002984;28;20052;-76
2022/10/13 05:59:10;;;;;;;18.77;10.25;;;;;;;8.38;100.00;101195.50;4988094;28;20532;-77
2022/10/13 06:01:40;;;;;;;14.88;8.93;;;;;;;8.41;100.00;101196.41;5010726;28;20461;-78
2022/10/13 06:04:12;;;;;;;16.85;10.82;;;;;;;8.45;100.00;101194.69;5003697;28;20428;-77
2022/10/13 06:06:39;;;;;;;18.48;10.43;;;;;;;8.51;100.00;101194.75;5009337;28;20049;-76
2022/10/13 06:09:06;;;;;;;16.15;9.48;;;;;;;8.59;100.00;101200.94;5006825;28;20058;-77
2022/10/13 06:11:32;;;;;;;17.33;9.90;;;;;;;8.66;100.00;101204.47;5011951;28;20036;-76
2022/10/13 06:13:59;;;;;;;21.95;10.95;;;;;;;8.74;100.00;101200.16;5004457;28;20125;-77
2022/10/13 06:16:25;;;;;;;14.85;9.60;;;;;;;8.77;100.00;101192.38;5006281;28;20050;-75
2022/10/13 06:18:52;;;;;;;15.05;9.18;;;;;;;8.80;100.00;101194.13;4993876;28;20120;-79
2022/10/13 06:21:18;;;;;;;15.93;10.95;;;;;;;8.84;100.00;101184.56;5015562;28;20048;-78
2022/10/13 06:23:45;;;;;;;18.10;9.13;;;;;;;8.85;100.00;101176.78;5004184;28;20038;-77
2022/10/13 06:26:11;;;;;;;17.60;10.80;;;;;;;8.87;100.00;101167.19;5009992;28;20046;-75
2022/10/13 06:28:38;;;;;;;15.07;10.57;;;;;;;8.91;100.00;101168.09;5013013;28;20045;-76
2022/10/13 06:31:06;;;;;;;20.42;10.75;;;;;;;8.93;100.00;101175.06;5007655;28;20551;-79
2022/10/13 06:33:33;;;;;;;18.02;9.73;;;;;;;8.97;100.00;101167.25;5009015;28;20053;-77
2022/10/13 06:36:05;;;;;;;21.05;10.40;;;;;;;9.02;100.00;101171.66;5006987;28;20057;-77
2022/10/13 06:38:33;;;;;;;24.05;11.52;;;;;;;9.07;100.00;101171.66;4994043;28;20473;-78
2022/10/13 06:41:05;;;;;;;16.38;9.80;;;;;;;9.12;100.00;101183.00;5011853;28;20045;-75
2022/10/13 06:43:33;;;;;;;16.23;10.25;;;;;;;9.17;100.00;101177.81;5014424;28;20411;-78
2022/10/13 06:46:00;;;;;;;17.73;10.70;;;;;;;9.21;100.00;101174.34;5001669;28;20049;-77
2022/10/13 06:48:28;;;;;;;16.08;9.65;;;;;;;9.24;100.00;101184.81;5014611;28;20122;-78
2022/10/13 06:50:55;;;;;;;20.40;11.95;;;;;;;9.31;100.00;101175.25;5011667;28;20777;-79
2022/10/13 06:53:21;;;;;;;16.33;10.13;;;;;;;9.37;100.00;101186.63;4988776;28;20055;-75
2022/10/13 06:55:48;;;;;;;25.25;11.00;;;;;;;9.40;100.00;101184.03;5009942;28;20041;-75
2022/10/13 06:58:14;;;;;;;20.23;11.25;;;;;;;9.45;100.00;101184.03;5009283;28;20049;-78
2022/10/13 07:00:41;;;;;;;16.05;10.10;;;;;;;9.49;100.00;101180.59;5010214;28;20041;-78
2022/10/13 07:03:12;;;;;;;16.88;9.93;;;;;;;9.54;100.00;101177.97;5033446;28;20046;-77
2022/10/13 07:05:38;;;;;;;16.85;10.38;;;;;;;9.60;100.00;101175.38;5033011;28;20389;-77
2022/10/13 07:08:05;;;;;;;17.02;9.48;;;;;;;9.64;100.00;101173.66;5013015;28;20502;-82
2022/10/13 07:10:33;;;;;;;15.25;10.50;;;;;;;9.69;100.00;101178.03;4998649;28;20511;-75
2022/10/13 07:13:00;;;;;;;16.90;10.65;;;;;;;9.75;100.00;101182.38;5008963;28;20041;-77
2022/10/13 07:15:28;;;;;;;16.48;9.10;;;;;;;9.83;100.00;101185.91;5011243;28;20542;-76
2022/10/13 07:17:54;;;;;;;15.50;10.60;;;;;;;9.90;100.00;101189.41;5014024;28;20045;-76
2022/10/13 07:20:23;;;;;;;15.75;9.80;;;;;;;9.98;100.00;101178.97;5016113;28;20041;-77
2022/10/13 07:22:50;;;;;;;21.05;10.65;;;;;;;10.07;100.00;101174.63;5014842;28;20076;-79
2022/10/13 07:25:16;;;;;;;15.95;9.70;;;;;;;10.16;100.00;101170.28;5003763;28;20419;-75
2022/10/13 07:27:43;;;;;;;17.05;10.27;;;;;;;10.28;100.00;101170.28;5011906;28;20048;-75
2022/10/13 07:30:11;;;;;;;17.73;9.20;;;;;;;10.41;100.00;101164.22;5016709;28;20815;-77
2022/10/13 07:32:40;;;;;;;18.05;10.55;;;;;;;10.57;100.00;101169.44;5014259;28;20482;-79
2022/10/13 07:35:11;;;;;;;18.50;10.75;;;;;;;10.74;100.00;101177.28;5011314;28;20038;-76
2022/10/13 07:37:38;;;;;;;12.18;9.50;;;;;;;10.85;100.00;101164.19;5011444;28;20057;-79
2022/10/13 07:40:07;;;;;;;14.82;9.07;;;;;;;11.06;100.00;101168.50;5001125;28;20099;-80
2022/10/13 07:42:34;;;;;;;14.00;9.82;;;;;;;11.24;100.00;101168.44;5012638;28;20048;-78
2022/10/13 07:45:00;;;;;;;20.05;12.05;;;;;;;11.46;100.00;101171.00;5014354;28;20041;-78
2022/10/13 07:47:28;;;;;;;16.95;9.63;;;;;;;11.61;99.83;101166.56;5009261;28;20041;-82
2022/10/13 07:49:55;;;;;;;12.65;8.88;;;;;;;11.75;98.54;101164.72;5014848;28;20431;-76
2022/10/13 07:52:22;;;;;;;17.48;9.60;;;;;;;11.82;96.70;101169.03;5007625;28;20053;-83
2022/10/13 07:54:50;;;;;;;17.38;9.20;;;;;;;11.82;97.29;101155.06;5011080;28;20053;-74
2022/10/13 07:57:17;;;;;;;18.23;9.00;;;;;;;11.84;96.87;101156.78;5012609;28;20484;-77
2022/10/13 07:59:44;;;;;;;21.42;8.75;;;;;;;11.88;96.82;101153.28;5006889;28;20500;-75
2022/10/13 08:02:11;;;;;;;12.35;8.98;;;;;;;11.91;95.68;101158.50;5015604;28;20125;-76
2022/10/13 08:04:37;;;;;;;13.18;8.43;;;;;;;11.89;95.11;101147.16;5005354;28;20500;-79
2022/10/13 08:07:05;;;;;;;11.35;7.80;;;;;;;11.90;95.47;101146.28;5011205;28;20645;-83
2022/10/13 08:09:31;;;;;;;26.27;10.23;;;;;;;11.93;94.88;101140.13;5001107;28;20114;-75
2022/10/13 08:11:58;;;;;;;13.90;8.32;;;;;;;11.97;95.14;101141.88;5030988;28;20049;-77
2022/10/13 08:14:25;;;;;;;17.55;9.90;;;;;;;12.12;94.08;101154.00;5028649;28;20053;-78
2022/10/13 08:16:51;;;;;;;17.80;10.10;;;;;;;12.24;92.30;101140.81;5009239;28;20049;-76
2022/10/13 08:19:20;;;;;;;11.65;9.00;;;;;;;12.39;91.83;101134.53;5007563;28;20494;-76
2022/10/13 08:21:47;;;;;;;11.55;7.65;;;;;;;12.56;90.23;101137.00;4993821;28;20041;-76
2022/10/13 08:24:17;;;;;;;11.73;7.75;;;;;;;12.77;90.16;101137.69;5011263;28;20129;-78
2022/10/13 08:26:46;;;;;;;16.25;8.98;;;;;;;12.98;88.55;101130.47;5008138;28;20079;-79
2022/10/13 08:29:14;;;;;;;16.50;9.15;;;;;;;13.08;86.17;101132.09;5009350;28;20037;-76
2022/10/13 08:31:41;;;;;;;13.18;8.10;;;;;;;13.20;86.85;101131.09;5005963;28;20037;-79
2022/10/13 08:34:09;;;;;;;11.40;8.30;;;;;;;13.38;85.60;101127.41;5005510;28;20041;-76
2022/10/13 08:36:36;;;;;;;11.32;8.02;;;;;;;13.50;85.21;101127.22;5006743;28;20180;-80
2022/10/13 08:39:03;;;;;;;13.25;7.88;;;;;;;13.63;83.72;101129.69;5014921;28;20264;-77
2022/10/13 08:41:36;;;;;;;13.63;8.93;;;;;;;13.66;82.51;101125.28;5003058;28;20131;-76
2022/10/13 08:44:20;;;;;;;14.23;7.40;;;;;;;13.59;83.11;101128.88;5014204;28;20053;-79
2022/10/13 08:46:57;;;;;;;10.30;7.18;;;;;;;13.44;83.08;101124.69;5011546;28;20045;-77
2022/10/13 08:49:23;;;;;;;10.05;7.43;;;;;;;13.33;84.56;101129.19;5029962;28;20049;-77
2022/10/13 08:51:50;;;;;;;15.02;7.07;;;;;;;13.25;84.83;101131.91;5011297;28;20048;-77
2022/10/13 08:54:21;;;;;;;9.23;7.35;;;;;;;13.14;84.99;101137.31;5008715;28;20040;-78
2022/10/13 08:56:49;;;;;;;13.38;9.05;;;;;;;13.02;85.59;101146.19;5014632;28;20048;-76
2022/10/13 08:59:17;;;;;;;10.73;7.97;;;;;;;12.90;86.27;101147.19;5024665;28;20045;-79
2022/10/13 09:01:47;;;;;;;11.30;7.85;;;;;;;12.88;86.53;101130.56;5021120;28;20056;-76
2022/10/13 09:04:38;;;;;;;9.57;7.63;;;;;;;12.85;86.41;101129.72;5013123;28;20069;-76
2022/10/13 09:07:17;;;;;;;10.68;8.27;;;;;;;12.86;86.83;101134.97;5016275;28;20116;-79
2022/10/13 09:09:44;;;;;;;12.43;7.50;;;;;;;12.89;86.80;101132.31;5016315;28;20460;-76
2022/10/13 09:12:14;;;;;;;9.70;7.72;;;;;;;13.03;86.80;101139.19;5019814;28;20045;-79
2022/10/13 09:14:41;;;;;;;13.73;7.35;;;;;;;13.24;85.70;101136.31;5022347;28;20197;-76
2022/10/13 09:17:25;;;;;;;12.82;7.00;;;;;;;13.43;84.85;101138.72;5023337;28;20468;-78
2022/10/13 09:20:07;;;;;;;11.95;7.25;;;;;;;13.70;83.21;101144.50;5017048;28;20065;-75
2022/10/13 09:22:39;;;;;;;12.65;7.55;;;;;;;13.88;81.76;101138.97;5035816;28;20049;-78
2022/10/13 09:25:09;;;;;;;12.48;7.50;;;;;;;13.99;80.92;101146.72;5008453;28;20053;-78
2022/10/13 09:27:44;;;;;;;13.07;7.55;;;;;;;14.06;80.67;101135.16;5049363;28;20038;-78
2022/10/13 09:30:48;;;;;;;12.02;6.47;;;;;;;14.11;79.22;101139.53;5000132;28;20045;-76
2022/10/13 09:33:23;;;;;;;10.18;6.18;;;;;;;14.05;79.63;101137.84;5010204;28;20051;-78
2022/10/13 09:36:14;;;;;;;9.50;6.75;;;;;;;13.95;79.49;101138.88;5013877;28;20041;-76
2022/10/13 09:38:45;;;;;;;10.85;6.65;;;;;;;13.99;79.87;101140.59;5034719;28;20050;-78
2022/10/13 09:41:21;;;;;;;13.38;5.97;;;;;;;14.05;79.34;101122.94;5023854;28;20056;-79
2022/10/13 09:43:48;;;;;;;14.13;6.40;;;;;;;14.18;78.66;101126.25;5005918;28;20048;-81
2022/10/13 09:46:24;;;;;;;25.00;7.93;;;;;;;14.37;77.52;101133.81;5037449;28;20045;-78
2022/10/13 09:48:54;;;;;;;9.85;7.32;;;;;;;14.48;77.66;101142.38;5010878;28;20041;-77
2022/10/13 09:51:34;;;;;;;10.48;6.57;;;;;;;14.62;77.39;101130.75;5021075;28;20099;-76
2022/10/13 09:54:02;;;;;;;11.25;6.20;;;;;;;14.77;76.92;101134.91;5015447;28;20497;-76
2022/10/13 09:56:46;;;;;;;15.23;6.05;;;;;;;14.93;76.10;101133.72;5012084;28;20041;-80
2022/10/13 09:59:32;;;;;;;9.75;7.45;;;;;;;15.03;75.77;101134.38;5013315;28;20065;-78
2022/10/13 10:02:12;;;;;;;12.65;6.45;;;;;;;15.21;75.20;101130.50;5014858;28;20053;-81
2022/10/13 10:04:42;;;;;;;11.07;5.97;;;;;;;15.50;74.64;101131.66;4994257;28;20048;-80
2022/10/13 10:07:22;;;;;;;10.45;6.57;;;;;;;15.76;73.42;101122.31;5009776;28;20045;-78
2022/10/13 10:09:57;;;;;;;9.27;6.53;;;;;;;16.02;71.22;101119.06;5014244;28;20076;-81
2022/10/13 10:12:29;;;;;;;9.60;5.82;;;;;;;16.20;70.29;101121.28;5027500;28;20050;-77
2022/10/13 10:14:55;;;;;;;8.85;5.20;;;;;;;16.30;69.91;101113.97;5008658;28;20041;-76
2022/10/13 10:17:45;;;;;;;9.60;6.07;;;;;;;16.33;68.99;101118.31;5034386;28;20046;-78
2022/10/13 10:20:41;;;;;;;8.20;5.82;;;;;;;16.50;67.51;101108.19;5013431;28;20104;-78
2022/10/13 10:23:28;;;;;;;12.02;6.03;;;;;;;16.41;68.09;101120.75;5011902;28;20045;-76
2022/10/13 10:26:26;;;;;;;6.72;4.72;;;;;;;16.29;67.59;101114.03;5025286;28;20496;-76
2022/10/13 10:29:12;;;;;;;8.82;6.13;;;;;;;16.27;67.65;101103.50;5006363;28;20042;-76
2022/10/13 10:32:01;;;;;;;10.98;6.10;;;;;;;16.23;67.83;101107.13;5019613;28;20048;-78
2022/10/13 10:34:49;;;;;;;17.55;5.65;;;;;;;16.25;66.14;101105.31;5010192;28;20049;-79
2022/10/13 10:37:37;;;;;;;9.50;5.38;;;;;;;16.33;65.98;101103.31;5010806;28;20054;-77
2022/10/13 10:40:39;;;;;;;13.77;5.10;;;;;;;16.44;65.44;101102.19;4995166;28;20042;-78
2022/10/13 10:43:23;;;;;;;10.52;5.55;;;;;;;16.80;63.29;101104.75;5020494;28;20037;-76
2022/10/13 10:45:50;;;;;;;13.48;5.18;;;;;;;16.94;63.60;101101.75;5010436;28;20041;-75
2022/10/13 10:48:24;;;;;;;7.95;5.00;;;;;;;17.30;62.59;101099.81;5014209;28;20038;-76
2022/10/13 10:50:53;;;;;;;8.18;5.55;;;;;;;17.48;61.52;101092.22;5009529;28;20400;-76
2022/10/13 10:53:46;;;;;;;8.40;5.28;;;;;;;17.63;60.76;101088.25;5016710;28;20392;-81
2022/10/13 10:56:35;;;;;;;4.90;4.07;;;;;;;17.83;60.89;101080.53;5022666;28;20038;-76
2022/10/13 10:59:39;;;;;;;8.70;4.85;;;;;;;18.06;58.93;101075.44;4993826;28;20042;-80
2022/10/13 11:02:08;;;;;;;9.53;4.83;;;;;;;17.74;59.80;101064.91;4996143;28;20749;-78
2022/10/13 11:04:47;;;;;;;6.45;5.00;;;;;;;17.57;60.15;101067.25;5031400;28;20667;-77
2022/10/13 11:07:22;;;;;;;11.38;5.53;;;;;;;17.53;60.80;101069.13;5005611;28;20045;-75
2022/10/13 11:09:49;;;;;;;9.70;5.57;;;;;;;17.52;61.01;101056.78;5027379;28;20044;-77
2022/10/13 11:12:19;;;;;;;5.85;4.63;;;;;;;17.62;60.93;101052.94;5009247;28;20053;-76
2022/10/13 11:15:08;;;;;;;10.27;4.43;;;;;;;17.85;61.30;101057.50;5028684;28;20057;-76
2022/10/13 11:17:37;;;;;;;10.43;5.18;;;;;;;18.06;60.03;101046.28;5001739;28;20069;-81
2022/10/13 11:20:19;;;;;;;5.88;4.15;;;;;;;18.14;59.67;101039.78;4996515;28;20483;-76
2022/10/13 11:23:26;;;;;;;6.88;4.70;;;;;;;18.11;59.14;101047.00;5028757;28;20033;-77
2022/10/13 11:26:29;;;;;;;7.05;4.20;;;;;;;18.00;59.62;101037.63;4992951;28;20077;-76
2022/10/13 11:28:57;;;;;;;8.75;5.03;;;;;;;17.73;59.94;101043.78;5027890;28;20072;-76
2022/10/13 11:31:31;;;;;;;9.68;4.65;;;;;;;17.55;61.39;101043.47;5016483;28;20833;-77
2022/10/13 11:34:01;;;;;;;6.47;3.97;;;;;;;17.63;61.22;101037.94;5024950;28;20041;-76
2022/10/13 11:36:54;;;;;;;7.90;4.97;;;;;;;17.68;60.67;101031.56;5034309;28;20063;-77
2022/10/13 11:39:25;;;;;;;7.50;4.97;;;;;;;17.84;60.25;101033.72;4995055;28;20604;-79
2022/10/13 11:42:21;;;;;;;5.93;4.65;;;;;;;17.85;60.02;101028.38;5012452;28;20061;-76